sensor_id;sensor_type;location;lat;lon;timestamp;P1;durP1;ratioP1;P2;durP2;ratioP2
46493;SDS011;53214;49.314;6.280;2024-02-21T00:00:23;5.25;;;2.50;;
46493;SDS011;53214;49.314;6.280;2024-02-21T00:02:50;5.68;;;2.28;;
46493;SDS011;53214;49.314;6.280;2024-02-21T00:05:17;6.80;;;2.20;;
46493;SDS011;53214;49.314;6.280;2024-02-21T00:07:44;3.95;;;2.00;;
46493;SDS011;53214;49.314;6.280;2024-02-21T00:10:11;6.00;;;2.00;;
46493;SDS011;53214;49.314;6.280;2024-02-21T00:12:37;6.07;;;2.30;;
46493;SDS011;53214;49.314;6.280;2024-02-21T00:15:04;6.65;;;2.38;;
46493;SDS011;53214;49.314;6.280;2024-02-21T00:17:32;4.97;;;2.28;;
46493;SDS011;53214;49.314;6.280;2024-02-21T00:19:59;4.80;;;2.20;;
46493;SDS011;53214;49.314;6.280;2024-02-21T00:22:26;7.53;;;2.85;;
46493;SDS011;53214;49.314;6.280;2024-02-21T00:24:55;8.10;;;2.95;;
46493;SDS011;53214;49.314;6.280;2024-02-21T00:27:22;7.10;;;2.70;;
46493;SDS011;53214;49.314;6.280;2024-02-21T00:29:49;4.43;;;2.63;;
46493;SDS011;53214;49.314;6.280;2024-02-21T00:32:16;7.72;;;2.63;;
46493;SDS011;53214;49.314;6.280;2024-02-21T00:34:43;6.63;;;3.03;;
46493;SDS011;53214;49.314;6.280;2024-02-21T00:37:10;8.48;;;3.30;;
46493;SDS011;53214;49.314;6.280;2024-02-21T00:39:37;5.63;;;2.63;;
46493;SDS011;53214;49.314;6.280;2024-02-21T00:42:04;6.45;;;2.97;;
46493;SDS011;53214;49.314;6.280;2024-02-21T00:44:31;8.13;;;2.90;;
46493;SDS011;53214;49.314;6.280;2024-02-21T00:46:57;8.00;;;3.10;;
46493;SDS011;53214;49.314;6.280;2024-02-21T00:49:24;6.38;;;3.08;;
46493;SDS011;53214;49.314;6.280;2024-02-21T00:51:51;8.30;;;3.40;;
46493;SDS011;53214;49.314;6.280;2024-02-21T00:54:18;9.07;;;4.20;;
46493;SDS011;53214;49.314;6.280;2024-02-21T00:56:44;7.70;;;4.03;;
46493;SDS011;53214;49.314;6.280;2024-02-21T00:59:11;9.48;;;4.40;;
46493;SDS011;53214;49.314;6.280;2024-02-21T01:01:38;11.00;;;5.03;;
46493;SDS011;53214;49.314;6.280;2024-02-21T01:04:09;8.95;;;4.65;;
46493;SDS011;53214;49.314;6.280;2024-02-21T01:06:36;12.63;;;5.88;;
46493;SDS011;53214;49.314;6.280;2024-02-21T01:09:03;10.20;;;6.07;;
46493;SDS011;53214;49.314;6.280;2024-02-21T01:11:30;11.07;;;6.63;;
46493;SDS011;53214;49.314;6.280;2024-02-21T01:13:57;8.27;;;5.70;;
46493;SDS011;53214;49.314;6.280;2024-02-21T01:16:24;7.90;;;5.00;;
46493;SDS011;53214;49.314;6.280;2024-02-21T01:18:51;8.57;;;5.00;;
46493;SDS011;53214;49.314;6.280;2024-02-21T01:21:18;10.30;;;5.43;;
46493;SDS011;53214;49.314;6.280;2024-02-21T01:23:45;6.47;;;4.30;;
46493;SDS011;53214;49.314;6.280;2024-02-21T01:26:12;9.48;;;4.53;;
46493;SDS011;53214;49.314;6.280;2024-02-21T01:28:41;8.95;;;4.20;;
46493;SDS011;53214;49.314;6.280;2024-02-21T01:31:08;10.95;;;4.30;;
46493;SDS011;53214;49.314;6.280;2024-02-21T01:33:35;10.00;;;3.97;;
46493;SDS011;53214;49.314;6.280;2024-02-21T01:36:02;9.00;;;3.83;;
46493;SDS011;53214;49.314;6.280;2024-02-21T01:38:29;10.38;;;3.85;;
46493;SDS011;53214;49.314;6.280;2024-02-21T01:40:58;8.50;;;3.35;;
46493;SDS011;53214;49.314;6.280;2024-02-21T01:43:25;8.38;;;3.47;;
46493;SDS011;53214;49.314;6.280;2024-02-21T01:45:53;7.28;;;3.22;;
46493;SDS011;53214;49.314;6.280;2024-02-21T01:48:21;7.78;;;3.40;;
46493;SDS011;53214;49.314;6.280;2024-02-21T01:50:49;7.50;;;3.05;;
46493;SDS011;53214;49.314;6.280;2024-02-21T01:53:17;5.15;;;2.92;;
46493;SDS011;53214;49.314;6.280;2024-02-21T01:55:47;6.80;;;3.40;;
46493;SDS011;53214;49.314;6.280;2024-02-21T01:58:17;7.72;;;3.45;;
46493;SDS011;53214;49.314;6.280;2024-02-21T02:00:46;8.57;;;3.80;;
46493;SDS011;53214;49.314;6.280;2024-02-21T02:03:14;6.72;;;3.50;;
46493;SDS011;53214;49.314;6.280;2024-02-21T02:05:44;10.30;;;4.47;;
46493;SDS011;53214;49.314;6.280;2024-02-21T02:08:15;7.72;;;3.75;;
46493;SDS011;53214;49.314;6.280;2024-02-21T02:10:43;7.82;;;3.88;;
46493;SDS011;53214;49.314;6.280;2024-02-21T02:13:10;8.10;;;4.50;;
46493;SDS011;53214;49.314;6.280;2024-02-21T02:15:40;6.65;;;4.15;;
46493;SDS011;53214;49.314;6.280;2024-02-21T02:18:17;8.27;;;4.38;;
46493;SDS011;53214;49.314;6.280;2024-02-21T02:20:45;7.65;;;4.28;;
46493;SDS011;53214;49.314;6.280;2024-02-21T02:25:52;8.55;;;4.22;;
46493;SDS011;53214;49.314;6.280;2024-02-21T02:28:19;6.95;;;3.33;;
46493;SDS011;53214;49.314;6.280;2024-02-21T02:30:47;6.40;;;3.08;;
46493;SDS011;53214;49.314;6.280;2024-02-21T02:33:15;7.47;;;3.20;;
46493;SDS011;53214;49.314;6.280;2024-02-21T02:35:44;5.95;;;2.90;;
46493;SDS011;53214;49.314;6.280;2024-02-21T02:38:11;8.18;;;3.28;;
46493;SDS011;53214;49.314;6.280;2024-02-21T02:40:40;8.75;;;3.60;;
46493;SDS011;53214;49.314;6.280;2024-02-21T02:43:07;7.60;;;3.25;;
46493;SDS011;53214;49.314;6.280;2024-02-21T02:45:34;6.97;;;2.60;;
46493;SDS011;53214;49.314;6.280;2024-02-21T02:48:01;10.27;;;3.35;;
46493;SDS011;53214;49.314;6.280;2024-02-21T02:50:28;8.48;;;2.75;;
46493;SDS011;53214;49.314;6.280;2024-02-21T02:52:55;10.57;;;3.65;;
46493;SDS011;53214;49.314;6.280;2024-02-21T02:55:22;6.20;;;2.67;;
46493;SDS011;53214;49.314;6.280;2024-02-21T02:57:49;6.30;;;3.53;;
46493;SDS011;53214;49.314;6.280;2024-02-21T03:00:16;6.70;;;2.95;;
46493;SDS011;53214;49.314;6.280;2024-02-21T03:02:45;5.95;;;2.90;;
46493;SDS011;53214;49.314;6.280;2024-02-21T03:05:15;5.85;;;3.45;;
46493;SDS011;53214;49.314;6.280;2024-02-21T03:07:44;10.27;;;4.20;;
46493;SDS011;53214;49.314;6.280;2024-02-21T03:10:12;8.30;;;3.55;;
46493;SDS011;53214;49.314;6.280;2024-02-21T03:12:39;8.15;;;3.67;;
46493;SDS011;53214;49.314;6.280;2024-02-21T03:15:07;8.27;;;3.60;;
46493;SDS011;53214;49.314;6.280;2024-02-21T03:17:34;8.43;;;4.03;;
46493;SDS011;53214;49.314;6.280;2024-02-21T03:20:01;7.82;;;4.05;;
46493;SDS011;53214;49.314;6.280;2024-02-21T03:22:31;10.32;;;4.20;;
46493;SDS011;53214;49.314;6.280;2024-02-21T03:25:01;8.18;;;3.50;;
46493;SDS011;53214;49.314;6.280;2024-02-21T03:27:28;8.85;;;3.30;;
46493;SDS011;53214;49.314;6.280;2024-02-21T03:29:55;6.88;;;3.45;;
46493;SDS011;53214;49.314;6.280;2024-02-21T03:32:21;7.68;;;3.03;;
46493;SDS011;53214;49.314;6.280;2024-02-21T03:34:48;7.72;;;3.20;;
46493;SDS011;53214;49.314;6.280;2024-02-21T03:37:15;6.07;;;3.00;;
46493;SDS011;53214;49.314;6.280;2024-02-21T03:39:42;7.18;;;3.47;;
46493;SDS011;53214;49.314;6.280;2024-02-21T03:42:09;5.93;;;3.20;;
46493;SDS011;53214;49.314;6.280;2024-02-21T03:44:36;8.00;;;3.00;;
46493;SDS011;53214;49.314;6.280;2024-02-21T03:47:03;9.35;;;3.25;;
46493;SDS011;53214;49.314;6.280;2024-02-21T03:49:30;9.32;;;3.47;;
46493;SDS011;53214;49.314;6.280;2024-02-21T03:51:57;7.10;;;3.17;;
46493;SDS011;53214;49.314;6.280;2024-02-21T03:54:23;6.47;;;2.85;;
46493;SDS011;53214;49.314;6.280;2024-02-21T03:56:50;7.43;;;3.10;;
46493;SDS011;53214;49.314;6.280;2024-02-21T03:59:17;7.68;;;2.92;;
46493;SDS011;53214;49.314;6.280;2024-02-21T04:01:44;8.45;;;2.83;;
46493;SDS011;53214;49.314;6.280;2024-02-21T04:04:10;5.95;;;2.83;;
46493;SDS011;53214;49.314;6.280;2024-02-21T04:06:45;7.78;;;3.00;;
46493;SDS011;53214;49.314;6.280;2024-02-21T04:09:13;5.13;;;3.00;;
46493;SDS011;53214;49.314;6.280;2024-02-21T04:11:40;8.48;;;2.80;;
46493;SDS011;53214;49.314;6.280;2024-02-21T04:14:07;8.32;;;3.55;;
46493;SDS011;53214;49.314;6.280;2024-02-21T04:16:34;9.38;;;3.22;;
46493;SDS011;53214;49.314;6.280;2024-02-21T04:19:01;8.75;;;3.00;;
46493;SDS011;53214;49.314;6.280;2024-02-21T04:21:28;6.63;;;2.78;;
46493;SDS011;53214;49.314;6.280;2024-02-21T04:23:55;7.18;;;3.15;;
46493;SDS011;53214;49.314;6.280;2024-02-21T04:26:22;6.55;;;3.05;;
46493;SDS011;53214;49.314;6.280;2024-02-21T04:28:49;8.07;;;2.78;;
46493;SDS011;53214;49.314;6.280;2024-02-21T04:31:16;6.20;;;2.75;;
46493;SDS011;53214;49.314;6.280;2024-02-21T04:33:43;8.32;;;3.22;;
46493;SDS011;53214;49.314;6.280;2024-02-21T04:36:10;7.20;;;3.05;;
46493;SDS011;53214;49.314;6.280;2024-02-21T04:38:36;9.70;;;3.17;;
46493;SDS011;53214;49.314;6.280;2024-02-21T04:41:05;6.53;;;2.90;;
46493;SDS011;53214;49.314;6.280;2024-02-21T04:43:32;7.78;;;2.58;;
46493;SDS011;53214;49.314;6.280;2024-02-21T04:45:59;10.00;;;2.60;;
46493;SDS011;53214;49.314;6.280;2024-02-21T04:48:26;6.70;;;2.38;;
46493;SDS011;53214;49.314;6.280;2024-02-21T04:50:53;9.13;;;2.58;;
46493;SDS011;53214;49.314;6.280;2024-02-21T04:53:20;8.30;;;2.90;;
46493;SDS011;53214;49.314;6.280;2024-02-21T04:55:47;6.50;;;3.03;;
46493;SDS011;53214;49.314;6.280;2024-02-21T04:58:14;6.32;;;2.53;;
46493;SDS011;53214;49.314;6.280;2024-02-21T05:00:41;7.72;;;2.78;;
46493;SDS011;53214;49.314;6.280;2024-02-21T05:03:08;7.70;;;2.78;;
46493;SDS011;53214;49.314;6.280;2024-02-21T05:05:35;11.38;;;3.38;;
46493;SDS011;53214;49.314;6.280;2024-02-21T05:08:02;8.20;;;2.63;;
46493;SDS011;53214;49.314;6.280;2024-02-21T05:10:30;6.07;;;2.80;;
46493;SDS011;53214;49.314;6.280;2024-02-21T05:12:57;9.15;;;2.92;;
46493;SDS011;53214;49.314;6.280;2024-02-21T05:15:25;4.68;;;2.60;;
46493;SDS011;53214;49.314;6.280;2024-02-21T05:17:52;10.82;;;2.72;;
46493;SDS011;53214;49.314;6.280;2024-02-21T05:20:19;7.63;;;2.53;;
46493;SDS011;53214;49.314;6.280;2024-02-21T05:22:46;7.00;;;2.53;;
46493;SDS011;53214;49.314;6.280;2024-02-21T05:25:13;7.75;;;2.80;;
46493;SDS011;53214;49.314;6.280;2024-02-21T05:27:40;6.70;;;2.88;;
46493;SDS011;53214;49.314;6.280;2024-02-21T05:30:06;7.15;;;2.72;;
46493;SDS011;53214;49.314;6.280;2024-02-21T05:32:34;7.22;;;2.78;;
46493;SDS011;53214;49.314;6.280;2024-02-21T05:35:00;8.95;;;2.75;;
46493;SDS011;53214;49.314;6.280;2024-02-21T05:37:28;7.97;;;3.10;;
46493;SDS011;53214;49.314;6.280;2024-02-21T05:39:55;7.95;;;2.42;;
46493;SDS011;53214;49.314;6.280;2024-02-21T05:42:21;14.45;;;3.45;;
46493;SDS011;53214;49.314;6.280;2024-02-21T05:44:48;6.45;;;2.67;;
46493;SDS011;53214;49.314;6.280;2024-02-21T05:47:15;5.05;;;2.28;;
46493;SDS011;53214;49.314;6.280;2024-02-21T05:49:42;4.40;;;1.92;;
46493;SDS011;53214;49.314;6.280;2024-02-21T05:52:09;5.05;;;2.47;;
46493;SDS011;53214;49.314;6.280;2024-02-21T05:54:37;5.55;;;2.25;;
46493;SDS011;53214;49.314;6.280;2024-02-21T05:57:08;4.30;;;2.20;;
46493;SDS011;53214;49.314;6.280;2024-02-21T05:59:35;6.22;;;2.20;;
46493;SDS011;53214;49.314;6.280;2024-02-21T06:02:06;6.03;;;2.50;;
46493;SDS011;53214;49.314;6.280;2024-02-21T06:04:33;6.50;;;2.50;;
46493;SDS011;53214;49.314;6.280;2024-02-21T06:07:00;4.78;;;2.20;;
46493;SDS011;53214;49.314;6.280;2024-02-21T06:09:28;5.65;;;2.60;;
46493;SDS011;53214;49.314;6.280;2024-02-21T06:11:55;9.30;;;2.63;;
46493;SDS011;53214;49.314;6.280;2024-02-21T06:14:21;5.00;;;2.40;;
46493;SDS011;53214;49.314;6.280;2024-02-21T06:16:48;6.47;;;2.90;;
46493;SDS011;53214;49.314;6.280;2024-02-21T06:19:15;9.02;;;2.88;;
46493;SDS011;53214;49.314;6.280;2024-02-21T06:21:42;7.53;;;2.90;;
46493;SDS011;53214;49.314;6.280;2024-02-21T06:24:09;6.25;;;2.72;;
46493;SDS011;53214;49.314;6.280;2024-02-21T06:26:36;6.65;;;2.83;;
46493;SDS011;53214;49.314;6.280;2024-02-21T06:29:02;7.53;;;3.20;;
46493;SDS011;53214;49.314;6.280;2024-02-21T06:31:30;7.50;;;3.00;;
46493;SDS011;53214;49.314;6.280;2024-02-21T06:33:58;6.60;;;3.17;;
46493;SDS011;53214;49.314;6.280;2024-02-21T06:36:25;7.38;;;3.60;;
46493;SDS011;53214;49.314;6.280;2024-02-21T06:38:52;9.27;;;3.50;;
46493;SDS011;53214;49.314;6.280;2024-02-21T06:41:18;8.68;;;3.38;;
46493;SDS011;53214;49.314;6.280;2024-02-21T06:43:46;11.13;;;3.58;;
46493;SDS011;53214;49.314;6.280;2024-02-21T06:49:09;8.85;;;3.92;;
46493;SDS011;53214;49.314;6.280;2024-02-21T06:51:42;8.77;;;3.63;;
46493;SDS011;53214;49.314;6.280;2024-02-21T06:54:09;9.85;;;4.38;;
46493;SDS011;53214;49.314;6.280;2024-02-21T06:56:36;8.07;;;4.20;;
46493;SDS011;53214;49.314;6.280;2024-02-21T06:59:03;10.00;;;4.57;;
46493;SDS011;53214;49.314;6.280;2024-02-21T07:01:30;11.77;;;4.20;;
46493;SDS011;53214;49.314;6.280;2024-02-21T07:03:57;12.70;;;4.93;;
46493;SDS011;53214;49.314;6.280;2024-02-21T07:06:24;12.15;;;4.70;;
46493;SDS011;53214;49.314;6.280;2024-02-21T07:08:51;9.07;;;4.38;;
46493;SDS011;53214;49.314;6.280;2024-02-21T07:11:18;11.48;;;4.80;;
46493;SDS011;53214;49.314;6.280;2024-02-21T07:13:45;9.18;;;4.05;;
46493;SDS011;53214;49.314;6.280;2024-02-21T07:16:12;10.02;;;4.78;;
46493;SDS011;53214;49.314;6.280;2024-02-21T07:18:39;9.30;;;4.75;;
46493;SDS011;53214;49.314;6.280;2024-02-21T07:21:05;8.40;;;4.13;;
46493;SDS011;53214;49.314;6.280;2024-02-21T07:23:32;9.35;;;3.85;;
46493;SDS011;53214;49.314;6.280;2024-02-21T07:25:59;11.10;;;4.72;;
46493;SDS011;53214;49.314;6.280;2024-02-21T07:28:26;14.40;;;4.95;;
46493;SDS011;53214;49.314;6.280;2024-02-21T07:30:53;10.00;;;4.00;;
46493;SDS011;53214;49.314;6.280;2024-02-21T07:33:20;12.90;;;4.80;;
46493;SDS011;53214;49.314;6.280;2024-02-21T07:35:46;11.63;;;4.22;;
46493;SDS011;53214;49.314;6.280;2024-02-21T07:38:14;10.82;;;4.13;;
46493;SDS011;53214;49.314;6.280;2024-02-21T07:40:40;10.98;;;4.70;;
46493;SDS011;53214;49.314;6.280;2024-02-21T07:43:07;10.07;;;4.60;;
46493;SDS011;53214;49.314;6.280;2024-02-21T07:45:34;8.80;;;4.63;;
46493;SDS011;53214;49.314;6.280;2024-02-21T07:48:01;11.38;;;4.55;;
46493;SDS011;53214;49.314;6.280;2024-02-21T07:50:28;10.02;;;5.07;;
46493;SDS011;53214;49.314;6.280;2024-02-21T07:52:55;13.02;;;5.45;;
46493;SDS011;53214;49.314;6.280;2024-02-21T07:55:22;18.73;;;5.68;;
46493;SDS011;53214;49.314;6.280;2024-02-21T07:57:49;15.25;;;5.75;;
46493;SDS011;53214;49.314;6.280;2024-02-21T08:00:16;19.10;;;6.35;;
46493;SDS011;53214;49.314;6.280;2024-02-21T08:02:47;18.42;;;5.80;;
46493;SDS011;53214;49.314;6.280;2024-02-21T08:05:15;13.70;;;5.95;;
46493;SDS011;53214;49.314;6.280;2024-02-21T08:07:42;17.90;;;6.53;;
46493;SDS011;53214;49.314;6.280;2024-02-21T08:10:09;19.33;;;6.18;;
46493;SDS011;53214;49.314;6.280;2024-02-21T08:12:36;16.95;;;6.22;;
46493;SDS011;53214;49.314;6.280;2024-02-21T08:15:02;15.75;;;6.53;;
46493;SDS011;53214;49.314;6.280;2024-02-21T08:17:30;15.00;;;7.32;;
46493;SDS011;53214;49.314;6.280;2024-02-21T08:19:57;26.17;;;11.43;;
46493;SDS011;53214;49.314;6.280;2024-02-21T08:22:24;15.02;;;8.48;;
46493;SDS011;53214;49.314;6.280;2024-02-21T08:24:52;17.50;;;8.02;;
46493;SDS011;53214;49.314;6.280;2024-02-21T08:27:19;15.23;;;7.10;;
46493;SDS011;53214;49.314;6.280;2024-02-21T08:29:46;15.50;;;6.30;;
46493;SDS011;53214;49.314;6.280;2024-02-21T08:32:13;14.52;;;6.25;;
46493;SDS011;53214;49.314;6.280;2024-02-21T08:34:40;16.52;;;5.90;;
46493;SDS011;53214;49.314;6.280;2024-02-21T08:37:06;12.70;;;5.75;;
46493;SDS011;53214;49.314;6.280;2024-02-21T08:39:34;15.48;;;6.10;;
46493;SDS011;53214;49.314;6.280;2024-02-21T08:42:01;15.13;;;5.57;;
46493;SDS011;53214;49.314;6.280;2024-02-21T08:44:27;15.57;;;5.50;;
46493;SDS011;53214;49.314;6.280;2024-02-21T08:46:55;14.15;;;5.78;;
46493;SDS011;53214;49.314;6.280;2024-02-21T08:49:23;12.40;;;4.97;;
46493;SDS011;53214;49.314;6.280;2024-02-21T08:51:51;17.60;;;5.50;;
46493;SDS011;53214;49.314;6.280;2024-02-21T08:54:18;16.58;;;5.40;;
46493;SDS011;53214;49.314;6.280;2024-02-21T08:56:45;15.45;;;4.78;;
46493;SDS011;53214;49.314;6.280;2024-02-21T08:59:12;14.80;;;5.40;;
46493;SDS011;53214;49.314;6.280;2024-02-21T09:01:39;20.83;;;5.88;;
46493;SDS011;53214;49.314;6.280;2024-02-21T09:04:06;14.00;;;5.40;;
46493;SDS011;53214;49.314;6.280;2024-02-21T09:06:33;10.40;;;5.43;;
46493;SDS011;53214;49.314;6.280;2024-02-21T09:09:03;14.07;;;5.32;;
46493;SDS011;53214;49.314;6.280;2024-02-21T09:11:30;14.45;;;6.10;;
46493;SDS011;53214;49.314;6.280;2024-02-21T09:13:57;11.88;;;6.53;;
46493;SDS011;53214;49.314;6.280;2024-02-21T09:16:24;16.58;;;6.80;;
46493;SDS011;53214;49.314;6.280;2024-02-21T09:18:50;20.65;;;6.90;;
46493;SDS011;53214;49.314;6.280;2024-02-21T09:21:18;23.42;;;7.18;;
46493;SDS011;53214;49.314;6.280;2024-02-21T09:23:45;15.77;;;7.28;;
46493;SDS011;53214;49.314;6.280;2024-02-21T09:26:12;15.88;;;6.18;;
46493;SDS011;53214;49.314;6.280;2024-02-21T09:28:42;15.43;;;7.07;;
46493;SDS011;53214;49.314;6.280;2024-02-21T09:31:10;16.40;;;6.45;;
46493;SDS011;53214;49.314;6.280;2024-02-21T09:33:37;18.63;;;7.30;;
46493;SDS011;53214;49.314;6.280;2024-02-21T09:36:05;17.38;;;6.65;;
46493;SDS011;53214;49.314;6.280;2024-02-21T09:38:32;15.73;;;6.55;;
46493;SDS011;53214;49.314;6.280;2024-02-21T09:41:23;14.88;;;6.45;;
46493;SDS011;53214;49.314;6.280;2024-02-21T09:43:57;17.13;;;6.53;;
46493;SDS011;53214;49.314;6.280;2024-02-21T09:46:24;13.38;;;6.50;;
46493;SDS011;53214;49.314;6.280;2024-02-21T09:51:56;23.30;;;7.82;;
46493;SDS011;53214;49.314;6.280;2024-02-21T09:54:27;17.15;;;6.57;;
46493;SDS011;53214;49.314;6.280;2024-02-21T09:56:55;15.00;;;6.32;;
46493;SDS011;53214;49.314;6.280;2024-02-21T09:59:23;15.05;;;5.90;;
46493;SDS011;53214;49.314;6.280;2024-02-21T10:01:56;16.90;;;6.03;;
46493;SDS011;53214;49.314;6.280;2024-02-21T10:04:23;17.85;;;6.18;;
46493;SDS011;53214;49.314;6.280;2024-02-21T10:06:50;18.92;;;5.72;;
46493;SDS011;53214;49.314;6.280;2024-02-21T10:09:23;13.20;;;4.72;;
46493;SDS011;53214;49.314;6.280;2024-02-21T10:11:56;18.38;;;5.03;;
46493;SDS011;53214;49.314;6.280;2024-02-21T10:14:33;17.02;;;5.22;;
46493;SDS011;53214;49.314;6.280;2024-02-21T10:17:00;14.80;;;5.07;;
46493;SDS011;53214;49.314;6.280;2024-02-21T10:19:28;13.07;;;4.65;;
46493;SDS011;53214;49.314;6.280;2024-02-21T10:21:59;16.60;;;5.07;;
46493;SDS011;53214;49.314;6.280;2024-02-21T10:24:38;16.42;;;5.03;;
46493;SDS011;53214;49.314;6.280;2024-02-21T10:27:08;19.17;;;5.22;;
46493;SDS011;53214;49.314;6.280;2024-02-21T10:29:37;14.50;;;4.80;;
46493;SDS011;53214;49.314;6.280;2024-02-21T10:34:35;12.98;;;4.57;;
46493;SDS011;53214;49.314;6.280;2024-02-21T10:37:03;12.70;;;4.85;;
46493;SDS011;53214;49.314;6.280;2024-02-21T10:39:31;10.88;;;4.38;;
46493;SDS011;53214;49.314;6.280;2024-02-21T10:42:00;12.43;;;3.90;;
46493;SDS011;53214;49.314;6.280;2024-02-21T10:44:32;13.43;;;3.95;;
46493;SDS011;53214;49.314;6.280;2024-02-21T10:46:59;12.50;;;3.72;;
46493;SDS011;53214;49.314;6.280;2024-02-21T10:49:30;11.95;;;3.53;;
46493;SDS011;53214;49.314;6.280;2024-02-21T10:52:06;11.02;;;3.60;;
46493;SDS011;53214;49.314;6.280;2024-02-21T10:54:47;8.88;;;4.10;;
46493;SDS011;53214;49.314;6.280;2024-02-21T10:57:22;12.45;;;3.92;;
46493;SDS011;53214;49.314;6.280;2024-02-21T10:59:51;12.25;;;3.80;;
46493;SDS011;53214;49.314;6.280;2024-02-21T11:02:18;15.30;;;4.53;;
46493;SDS011;53214;49.314;6.280;2024-02-21T11:04:46;14.05;;;4.10;;
46493;SDS011;53214;49.314;6.280;2024-02-21T11:07:14;13.43;;;3.83;;
46493;SDS011;53214;49.314;6.280;2024-02-21T11:09:50;11.45;;;3.60;;
46493;SDS011;53214;49.314;6.280;2024-02-21T11:12:21;12.38;;;3.63;;
46493;SDS011;53214;49.314;6.280;2024-02-21T11:14:49;12.38;;;3.88;;
46493;SDS011;53214;49.314;6.280;2024-02-21T11:17:17;12.25;;;3.90;;
46493;SDS011;53214;49.314;6.280;2024-02-21T11:19:45;9.85;;;3.70;;
46493;SDS011;53214;49.314;6.280;2024-02-21T11:22:19;12.02;;;3.22;;
46493;SDS011;53214;49.314;6.280;2024-02-21T11:24:49;11.05;;;4.03;;
46493;SDS011;53214;49.314;6.280;2024-02-21T11:27:16;8.65;;;3.03;;
46493;SDS011;53214;49.314;6.280;2024-02-21T11:29:55;11.90;;;3.17;;
46493;SDS011;53214;49.314;6.280;2024-02-21T11:32:23;15.80;;;3.58;;
46493;SDS011;53214;49.314;6.280;2024-02-21T11:34:57;14.95;;;4.10;;
46493;SDS011;53214;49.314;6.280;2024-02-21T11:37:29;10.35;;;3.45;;
46493;SDS011;53214;49.314;6.280;2024-02-21T11:40:03;11.27;;;3.83;;
46493;SDS011;53214;49.314;6.280;2024-02-21T11:42:30;12.02;;;3.67;;
46493;SDS011;53214;49.314;6.280;2024-02-21T11:44:57;11.70;;;3.78;;
46493;SDS011;53214;49.314;6.280;2024-02-21T11:47:25;9.93;;;3.10;;
46493;SDS011;53214;49.314;6.280;2024-02-21T11:49:54;7.72;;;3.00;;
46493;SDS011;53214;49.314;6.280;2024-02-21T11:52:22;13.95;;;3.65;;
46493;SDS011;53214;49.314;6.280;2024-02-21T11:54:54;15.48;;;3.70;;
46493;SDS011;53214;49.314;6.280;2024-02-21T11:57:23;11.10;;;3.40;;
46493;SDS011;53214;49.314;6.280;2024-02-21T11:59:50;8.27;;;3.25;;
46493;SDS011;53214;49.314;6.280;2024-02-21T12:02:25;12.65;;;3.17;;
46493;SDS011;53214;49.314;6.280;2024-02-21T12:04:52;10.43;;;2.70;;
46493;SDS011;53214;49.314;6.280;2024-02-21T12:07:21;8.82;;;2.30;;
46493;SDS011;53214;49.314;6.280;2024-02-21T12:09:50;6.82;;;2.45;;
46493;SDS011;53214;49.314;6.280;2024-02-21T12:12:19;11.50;;;2.67;;
46493;SDS011;53214;49.314;6.280;2024-02-21T12:14:47;8.93;;;3.25;;
46493;SDS011;53214;49.314;6.280;2024-02-21T12:17:26;7.88;;;2.17;;
46493;SDS011;53214;49.314;6.280;2024-02-21T12:19:53;8.63;;;2.50;;
46493;SDS011;53214;49.314;6.280;2024-02-21T12:22:20;11.07;;;2.88;;
46493;SDS011;53214;49.314;6.280;2024-02-21T12:24:47;14.23;;;3.10;;
46493;SDS011;53214;49.314;6.280;2024-02-21T12:27:15;10.70;;;3.33;;
46493;SDS011;53214;49.314;6.280;2024-02-21T12:29:41;10.50;;;2.33;;
46493;SDS011;53214;49.314;6.280;2024-02-21T12:32:08;11.88;;;2.63;;
46493;SDS011;53214;49.314;6.280;2024-02-21T12:34:35;9.77;;;2.63;;
46493;SDS011;53214;49.314;6.280;2024-02-21T12:37:18;8.48;;;2.45;;
46493;SDS011;53214;49.314;6.280;2024-02-21T12:39:47;8.20;;;2.58;;
46493;SDS011;53214;49.314;6.280;2024-02-21T12:42:14;12.82;;;2.55;;
46493;SDS011;53214;49.314;6.280;2024-02-21T12:44:40;10.00;;;2.63;;
46493;SDS011;53214;49.314;6.280;2024-02-21T12:47:08;12.63;;;2.72;;
46493;SDS011;53214;49.314;6.280;2024-02-21T12:49:35;9.98;;;2.20;;
46493;SDS011;53214;49.314;6.280;2024-02-21T12:52:03;9.93;;;2.85;;
46493;SDS011;53214;49.314;6.280;2024-02-21T12:54:30;10.38;;;2.70;;
46493;SDS011;53214;49.314;6.280;2024-02-21T12:56:57;6.57;;;2.50;;
46493;SDS011;53214;49.314;6.280;2024-02-21T12:59:29;13.68;;;3.05;;
46493;SDS011;53214;49.314;6.280;2024-02-21T13:01:56;11.10;;;3.17;;
46493;SDS011;53214;49.314;6.280;2024-02-21T13:04:23;9.45;;;2.72;;
46493;SDS011;53214;49.314;6.280;2024-02-21T13:06:51;10.00;;;2.50;;
46493;SDS011;53214;49.314;6.280;2024-02-21T13:09:18;13.15;;;3.00;;
46493;SDS011;53214;49.314;6.280;2024-02-21T13:11:45;10.90;;;2.67;;
46493;SDS011;53214;49.314;6.280;2024-02-21T13:14:12;8.20;;;2.75;;
46493;SDS011;53214;49.314;6.280;2024-02-21T13:16:39;11.25;;;2.40;;
46493;SDS011;53214;49.314;6.280;2024-02-21T13:19:06;11.30;;;2.90;;
46493;SDS011;53214;49.314;6.280;2024-02-21T13:21:37;13.65;;;2.95;;
46493;SDS011;53214;49.314;6.280;2024-02-21T13:24:04;9.05;;;3.00;;
46493;SDS011;53214;49.314;6.280;2024-02-21T13:26:31;12.52;;;2.88;;
46493;SDS011;53214;49.314;6.280;2024-02-21T13:28:57;11.73;;;2.95;;
46493;SDS011;53214;49.314;6.280;2024-02-21T13:31:24;11.63;;;2.92;;
46493;SDS011;53214;49.314;6.280;2024-02-21T13:33:52;12.32;;;3.28;;
46493;SDS011;53214;49.314;6.280;2024-02-21T13:36:19;12.13;;;3.45;;
46493;SDS011;53214;49.314;6.280;2024-02-21T13:38:46;12.55;;;3.50;;
46493;SDS011;53214;49.314;6.280;2024-02-21T13:41:13;12.65;;;3.00;;
46493;SDS011;53214;49.314;6.280;2024-02-21T13:43:40;13.68;;;4.38;;
46493;SDS011;53214;49.314;6.280;2024-02-21T13:46:07;15.63;;;3.47;;
46493;SDS011;53214;49.314;6.280;2024-02-21T13:48:36;13.95;;;3.75;;
46493;SDS011;53214;49.314;6.280;2024-02-21T13:51:03;17.20;;;3.90;;
46493;SDS011;53214;49.314;6.280;2024-02-21T13:53:30;32.38;;;6.65;;
46493;SDS011;53214;49.314;6.280;2024-02-21T13:55:57;15.88;;;4.43;;
46493;SDS011;53214;49.314;6.280;2024-02-21T13:58:24;11.50;;;3.30;;
46493;SDS011;53214;49.314;6.280;2024-02-21T14:00:52;9.95;;;3.85;;
46493;SDS011;53214;49.314;6.280;2024-02-21T14:03:20;10.75;;;3.50;;
46493;SDS011;53214;49.314;6.280;2024-02-21T14:05:47;10.38;;;3.30;;
46493;SDS011;53214;49.314;6.280;2024-02-21T14:08:15;10.05;;;3.25;;
46493;SDS011;53214;49.314;6.280;2024-02-21T14:10:42;11.70;;;3.67;;
46493;SDS011;53214;49.314;6.280;2024-02-21T14:13:09;9.95;;;3.53;;
46493;SDS011;53214;49.314;6.280;2024-02-21T14:15:36;14.52;;;4.32;;
46493;SDS011;53214;49.314;6.280;2024-02-21T14:18:04;15.00;;;3.78;;
46493;SDS011;53214;49.314;6.280;2024-02-21T14:20:35;11.90;;;4.13;;
46493;SDS011;53214;49.314;6.280;2024-02-21T14:23:02;14.32;;;3.85;;
46493;SDS011;53214;49.314;6.280;2024-02-21T14:25:31;11.05;;;3.28;;
46493;SDS011;53214;49.314;6.280;2024-02-21T14:27:59;15.55;;;3.88;;
46493;SDS011;53214;49.314;6.280;2024-02-21T14:30:29;12.10;;;3.67;;
46493;SDS011;53214;49.314;6.280;2024-02-21T14:32:55;11.63;;;3.88;;
46493;SDS011;53214;49.314;6.280;2024-02-21T14:35:22;13.63;;;3.67;;
46493;SDS011;53214;49.314;6.280;2024-02-21T14:37:50;8.40;;;3.55;;
46493;SDS011;53214;49.314;6.280;2024-02-21T14:40:18;15.02;;;4.18;;
46493;SDS011;53214;49.314;6.280;2024-02-21T14:42:47;9.88;;;3.83;;
46493;SDS011;53214;49.314;6.280;2024-02-21T14:45:14;22.50;;;4.90;;
46493;SDS011;53214;49.314;6.280;2024-02-21T14:47:40;13.93;;;3.90;;
46493;SDS011;53214;49.314;6.280;2024-02-21T14:50:07;12.82;;;3.95;;
46493;SDS011;53214;49.314;6.280;2024-02-21T14:52:35;11.20;;;3.35;;
46493;SDS011;53214;49.314;6.280;2024-02-21T14:55:03;13.15;;;3.40;;